sensor_id;sensor_type;location;lat;lon;timestamp;P1;durP1;ratioP1;P2;durP2;ratioP2
74465;SDS011;62916;50.044;15.938;2023-05-10T00:00:38;2.70;;;1.60;;
74465;SDS011;62916;50.044;15.938;2023-05-10T00:03:10;2.60;;;0.90;;
74465;SDS011;62916;50.044;15.938;2023-05-10T00:05:41;1.90;;;1.20;;
74465;SDS011;62916;50.044;15.938;2023-05-10T00:08:11;2.30;;;1.50;;
74465;SDS011;62916;50.044;15.938;2023-05-10T00:10:42;1.80;;;1.40;;
74465;SDS011;62916;50.044;15.938;2023-05-10T00:13:13;1.80;;;1.70;;
74465;SDS011;62916;50.044;15.938;2023-05-10T00:15:44;1.30;;;1.00;;
74465;SDS011;62916;50.044;15.938;2023-05-10T00:18:15;1.80;;;1.50;;
74465;SDS011;62916;50.044;15.938;2023-05-10T00:20:46;1.60;;;1.40;;
74465;SDS011;62916;50.044;15.938;2023-05-10T00:23:17;1.60;;;1.30;;
74465;SDS011;62916;50.044;15.938;2023-05-10T00:25:47;2.30;;;1.40;;
74465;SDS011;62916;50.044;15.938;2023-05-10T00:28:18;1.80;;;1.30;;
74465;SDS011;62916;50.044;15.938;2023-05-10T00:30:49;2.20;;;1.00;;
74465;SDS011;62916;50.044;15.938;2023-05-10T00:33:20;1.00;;;0.90;;
74465;SDS011;62916;50.044;15.938;2023-05-10T00:35:51;1.50;;;1.30;;
74465;SDS011;62916;50.044;15.938;2023-05-10T00:38:22;2.00;;;1.30;;
74465;SDS011;62916;50.044;15.938;2023-05-10T00:40:53;1.70;;;1.40;;
74465;SDS011;62916;50.044;15.938;2023-05-10T00:43:23;2.10;;;1.50;;
74465;SDS011;62916;50.044;15.938;2023-05-10T00:45:54;1.70;;;1.40;;
74465;SDS011;62916;50.044;15.938;2023-05-10T00:48:25;1.80;;;1.30;;
74465;SDS011;62916;50.044;15.938;2023-05-10T00:50:57;1.60;;;1.30;;
74465;SDS011;62916;50.044;15.938;2023-05-10T00:53:30;1.50;;;1.30;;
74465;SDS011;62916;50.044;15.938;2023-05-10T00:56:03;1.30;;;1.10;;
74465;SDS011;62916;50.044;15.938;2023-05-10T00:58:34;1.60;;;1.00;;
74465;SDS011;62916;50.044;15.938;2023-05-10T01:01:06;2.00;;;1.30;;
74465;SDS011;62916;50.044;15.938;2023-05-10T01:03:38;2.40;;;1.20;;
74465;SDS011;62916;50.044;15.938;2023-05-10T01:06:10;2.00;;;1.50;;
74465;SDS011;62916;50.044;15.938;2023-05-10T01:08:41;1.20;;;1.10;;
74465;SDS011;62916;50.044;15.938;2023-05-10T01:11:12;1.80;;;1.20;;
74465;SDS011;62916;50.044;15.938;2023-05-10T01:13:43;1.30;;;1.20;;
74465;SDS011;62916;50.044;15.938;2023-05-10T01:16:21;1.30;;;1.20;;
74465;SDS011;62916;50.044;15.938;2023-05-10T01:18:53;2.00;;;1.30;;
74465;SDS011;62916;50.044;15.938;2023-05-10T01:21:27;1.70;;;1.00;;
74465;SDS011;62916;50.044;15.938;2023-05-10T01:24:19;1.30;;;1.20;;
74465;SDS011;62916;50.044;15.938;2023-05-10T01:30:41;1.80;;;1.20;;
74465;SDS011;62916;50.044;15.938;2023-05-10T01:33:30;1.30;;;1.10;;
74465;SDS011;62916;50.044;15.938;2023-05-10T01:36:05;1.20;;;1.00;;
74465;SDS011;62916;50.044;15.938;2023-05-10T01:38:43;1.20;;;1.00;;
74465;SDS011;62916;50.044;15.938;2023-05-10T01:41:24;1.40;;;1.10;;
74465;SDS011;62916;50.044;15.938;2023-05-10T01:44:02;1.90;;;1.70;;
74465;SDS011;62916;50.044;15.938;2023-05-10T01:46:39;2.50;;;1.70;;
74465;SDS011;62916;50.044;15.938;2023-05-10T01:49:11;1.20;;;1.10;;
74465;SDS011;62916;50.044;15.938;2023-05-10T01:51:48;1.40;;;1.10;;
74465;SDS011;62916;50.044;15.938;2023-05-10T01:54:22;1.60;;;1.30;;
74465;SDS011;62916;50.044;15.938;2023-05-10T01:56:59;1.40;;;1.30;;
74465;SDS011;62916;50.044;15.938;2023-05-10T01:59:34;1.20;;;1.10;;
74465;SDS011;62916;50.044;15.938;2023-05-10T02:02:08;2.20;;;1.10;;
74465;SDS011;62916;50.044;15.938;2023-05-10T02:04:40;1.10;;;1.00;;
74465;SDS011;62916;50.044;15.938;2023-05-10T02:07:13;1.30;;;1.20;;
74465;SDS011;62916;50.044;15.938;2023-05-10T02:09:45;1.20;;;1.10;;
74465;SDS011;62916;50.044;15.938;2023-05-10T02:12:16;1.80;;;1.40;;
74465;SDS011;62916;50.044;15.938;2023-05-10T02:14:49;1.40;;;1.30;;
74465;SDS011;62916;50.044;15.938;2023-05-10T02:17:22;1.50;;;1.30;;
74465;SDS011;62916;50.044;15.938;2023-05-10T02:19:54;1.60;;;1.10;;
74465;SDS011;62916;50.044;15.938;2023-05-10T02:22:27;1.60;;;1.20;;
74465;SDS011;62916;50.044;15.938;2023-05-10T02:24:59;2.40;;;1.10;;
74465;SDS011;62916;50.044;15.938;2023-05-10T02:27:32;1.90;;;1.00;;
74465;SDS011;62916;50.044;15.938;2023-05-10T02:30:07;1.20;;;1.10;;
74465;SDS011;62916;50.044;15.938;2023-05-10T02:32:39;1.10;;;0.90;;
74465;SDS011;62916;50.044;15.938;2023-05-10T02:35:11;1.90;;;1.40;;
74465;SDS011;62916;50.044;15.938;2023-05-10T02:37:44;1.10;;;1.00;;
74465;SDS011;62916;50.044;15.938;2023-05-10T02:40:16;1.80;;;1.10;;
74465;SDS011;62916;50.044;15.938;2023-05-10T02:42:48;1.50;;;0.90;;
74465;SDS011;62916;50.044;15.938;2023-05-10T02:45:25;1.40;;;1.20;;
74465;SDS011;62916;50.044;15.938;2023-05-10T02:47:59;1.30;;;1.20;;
74465;SDS011;62916;50.044;15.938;2023-05-10T02:50:30;1.70;;;1.00;;
74465;SDS011;62916;50.044;15.938;2023-05-10T02:53:06;1.20;;;1.00;;
74465;SDS011;62916;50.044;15.938;2023-05-10T02:55:40;1.40;;;1.30;;
74465;SDS011;62916;50.044;15.938;2023-05-10T02:58:15;1.10;;;1.10;;
74465;SDS011;62916;50.044;15.938;2023-05-10T03:00:46;1.00;;;0.90;;
74465;SDS011;62916;50.044;15.938;2023-05-10T03:03:17;1.30;;;0.90;;
74465;SDS011;62916;50.044;15.938;2023-05-10T03:05:48;2.20;;;1.20;;
74465;SDS011;62916;50.044;15.938;2023-05-10T03:08:21;1.20;;;1.10;;
74465;SDS011;62916;50.044;15.938;2023-05-10T03:10:58;1.80;;;1.50;;
74465;SDS011;62916;50.044;15.938;2023-05-10T03:13:39;1.40;;;0.90;;
74465;SDS011;62916;50.044;15.938;2023-05-10T03:16:20;2.10;;;1.20;;
74465;SDS011;62916;50.044;15.938;2023-05-10T03:18:56;1.50;;;1.20;;
74465;SDS011;62916;50.044;15.938;2023-05-10T03:21:35;1.90;;;1.10;;
74465;SDS011;62916;50.044;15.938;2023-05-10T03:24:10;0.80;;;0.80;;
74465;SDS011;62916;50.044;15.938;2023-05-10T03:26:43;1.00;;;0.90;;
74465;SDS011;62916;50.044;15.938;2023-05-10T03:29:15;1.10;;;1.00;;
74465;SDS011;62916;50.044;15.938;2023-05-10T03:31:46;1.10;;;1.00;;
74465;SDS011;62916;50.044;15.938;2023-05-10T03:34:17;1.40;;;1.00;;
74465;SDS011;62916;50.044;15.938;2023-05-10T03:36:54;1.30;;;1.20;;
74465;SDS011;62916;50.044;15.938;2023-05-10T03:39:25;1.20;;;1.10;;
74465;SDS011;62916;50.044;15.938;2023-05-10T03:41:55;1.30;;;1.10;;
74465;SDS011;62916;50.044;15.938;2023-05-10T03:44:26;0.90;;;0.80;;
74465;SDS011;62916;50.044;15.938;2023-05-10T03:46:57;1.10;;;1.00;;
74465;SDS011;62916;50.044;15.938;2023-05-10T03:49:28;1.10;;;0.90;;
74465;SDS011;62916;50.044;15.938;2023-05-10T03:51:59;1.00;;;0.90;;
74465;SDS011;62916;50.044;15.938;2023-05-10T03:54:30;1.60;;;1.20;;
74465;SDS011;62916;50.044;15.938;2023-05-10T03:57:00;1.30;;;1.10;;
74465;SDS011;62916;50.044;15.938;2023-05-10T03:59:31;1.30;;;1.00;;
74465;SDS011;62916;50.044;15.938;2023-05-10T04:02:02;1.30;;;1.00;;
74465;SDS011;62916;50.044;15.938;2023-05-10T04:04:33;1.70;;;1.30;;
74465;SDS011;62916;50.044;15.938;2023-05-10T04:07:04;2.70;;;1.30;;
74465;SDS011;62916;50.044;15.938;2023-05-10T04:09:35;1.70;;;1.40;;
74465;SDS011;62916;50.044;15.938;2023-05-10T04:12:06;2.00;;;1.40;;
74465;SDS011;62916;50.044;15.938;2023-05-10T04:14:37;2.70;;;1.40;;
74465;SDS011;62916;50.044;15.938;2023-05-10T04:17:08;2.10;;;1.90;;
74465;SDS011;62916;50.044;15.938;2023-05-10T04:19:39;3.40;;;1.60;;
74465;SDS011;62916;50.044;15.938;2023-05-10T04:22:10;4.80;;;2.10;;
74465;SDS011;62916;50.044;15.938;2023-05-10T04:24:41;14.40;;;2.70;;
74465;SDS011;62916;50.044;15.938;2023-05-10T04:27:12;22.10;;;4.10;;
74465;SDS011;62916;50.044;15.938;2023-05-10T04:29:42;24.70;;;4.00;;
74465;SDS011;62916;50.044;15.938;2023-05-10T04:32:13;22.40;;;3.30;;
74465;SDS011;62916;50.044;15.938;2023-05-10T04:34:45;22.80;;;3.00;;
74465;SDS011;62916;50.044;15.938;2023-05-10T04:37:15;11.50;;;2.70;;
74465;SDS011;62916;50.044;15.938;2023-05-10T04:39:47;17.20;;;3.30;;
74465;SDS011;62916;50.044;15.938;2023-05-10T04:42:17;12.80;;;3.10;;
74465;SDS011;62916;50.044;15.938;2023-05-10T04:44:48;9.10;;;2.60;;
74465;SDS011;62916;50.044;15.938;2023-05-10T04:47:19;12.70;;;2.70;;
74465;SDS011;62916;50.044;15.938;2023-05-10T04:49:50;10.80;;;2.50;;
74465;SDS011;62916;50.044;15.938;2023-05-10T04:52:21;11.80;;;2.30;;
74465;SDS011;62916;50.044;15.938;2023-05-10T04:54:52;9.50;;;2.00;;
74465;SDS011;62916;50.044;15.938;2023-05-10T04:57:23;7.80;;;1.80;;
74465;SDS011;62916;50.044;15.938;2023-05-10T04:59:54;8.30;;;2.80;;
74465;SDS011;62916;50.044;15.938;2023-05-10T05:02:25;5.80;;;2.00;;
74465;SDS011;62916;50.044;15.938;2023-05-10T05:04:57;5.70;;;1.70;;
74465;SDS011;62916;50.044;15.938;2023-05-10T05:07:27;5.80;;;2.00;;
74465;SDS011;62916;50.044;15.938;2023-05-10T05:09:58;5.40;;;1.70;;
74465;SDS011;62916;50.044;15.938;2023-05-10T05:12:29;6.40;;;1.50;;
74465;SDS011;62916;50.044;15.938;2023-05-10T05:15:00;6.40;;;2.30;;
74465;SDS011;62916;50.044;15.938;2023-05-10T05:17:32;4.20;;;1.50;;
74465;SDS011;62916;50.044;15.938;2023-05-10T05:20:05;5.10;;;1.80;;
74465;SDS011;62916;50.044;15.938;2023-05-10T05:22:37;5.80;;;2.10;;
74465;SDS011;62916;50.044;15.938;2023-05-10T05:25:08;4.90;;;2.10;;
74465;SDS011;62916;50.044;15.938;2023-05-10T05:27:39;2.90;;;2.00;;
74465;SDS011;62916;50.044;15.938;2023-05-10T05:30:11;5.50;;;1.90;;
74465;SDS011;62916;50.044;15.938;2023-05-10T05:32:42;2.90;;;1.70;;
74465;SDS011;62916;50.044;15.938;2023-05-10T05:35:15;6.70;;;2.10;;
74465;SDS011;62916;50.044;15.938;2023-05-10T05:37:46;3.50;;;1.60;;
74465;SDS011;62916;50.044;15.938;2023-05-10T05:40:17;3.80;;;1.40;;
74465;SDS011;62916;50.044;15.938;2023-05-10T05:42:48;5.30;;;1.90;;
74465;SDS011;62916;50.044;15.938;2023-05-10T05:45:19;4.20;;;1.60;;
74465;SDS011;62916;50.044;15.938;2023-05-10T05:47:49;1.80;;;1.20;;
74465;SDS011;62916;50.044;15.938;2023-05-10T05:50:21;4.30;;;1.90;;
74465;SDS011;62916;50.044;15.938;2023-05-10T05:52:51;4.20;;;1.90;;
74465;SDS011;62916;50.044;15.938;2023-05-10T05:55:23;2.70;;;1.50;;
74465;SDS011;62916;50.044;15.938;2023-05-10T05:57:55;2.70;;;1.80;;
74465;SDS011;62916;50.044;15.938;2023-05-10T06:00:26;2.90;;;1.40;;
74465;SDS011;62916;50.044;15.938;2023-05-10T06:02:57;1.90;;;1.70;;
74465;SDS011;62916;50.044;15.938;2023-05-10T06:05:28;2.80;;;1.60;;
74465;SDS011;62916;50.044;15.938;2023-05-10T06:08:00;3.30;;;1.60;;
74465;SDS011;62916;50.044;15.938;2023-05-10T06:10:31;2.00;;;1.80;;
74465;SDS011;62916;50.044;15.938;2023-05-10T06:13:02;4.10;;;2.20;;
74465;SDS011;62916;50.044;15.938;2023-05-10T06:15:33;2.10;;;1.60;;
74465;SDS011;62916;50.044;15.938;2023-05-10T06:18:04;2.60;;;1.80;;
74465;SDS011;62916;50.044;15.938;2023-05-10T06:20:35;2.60;;;1.60;;
74465;SDS011;62916;50.044;15.938;2023-05-10T06:23:06;2.00;;;1.40;;
74465;SDS011;62916;50.044;15.938;2023-05-10T06:25:37;2.40;;;2.20;;
74465;SDS011;62916;50.044;15.938;2023-05-10T06:28:08;1.70;;;1.20;;
74465;SDS011;62916;50.044;15.938;2023-05-10T06:30:38;2.60;;;1.90;;
74465;SDS011;62916;50.044;15.938;2023-05-10T06:33:09;2.30;;;2.10;;
74465;SDS011;62916;50.044;15.938;2023-05-10T06:35:40;2.10;;;1.70;;
74465;SDS011;62916;50.044;15.938;2023-05-10T06:38:11;2.50;;;1.60;;
74465;SDS011;62916;50.044;15.938;2023-05-10T06:40:42;1.80;;;1.60;;
74465;SDS011;62916;50.044;15.938;2023-05-10T06:43:13;2.70;;;1.60;;
74465;SDS011;62916;50.044;15.938;2023-05-10T06:45:44;2.40;;;1.70;;
74465;SDS011;62916;50.044;15.938;2023-05-10T06:48:14;3.20;;;1.80;;
74465;SDS011;62916;50.044;15.938;2023-05-10T06:50:45;3.40;;;1.70;;
74465;SDS011;62916;50.044;15.938;2023-05-10T06:53:16;2.90;;;1.60;;
74465;SDS011;62916;50.044;15.938;2023-05-10T06:55:47;2.50;;;1.90;;
74465;SDS011;62916;50.044;15.938;2023-05-10T06:58:19;2.80;;;1.80;;
74465;SDS011;62916;50.044;15.938;2023-05-10T07:00:51;2.90;;;1.90;;
74465;SDS011;62916;50.044;15.938;2023-05-10T07:03:21;3.20;;;1.60;;
74465;SDS011;62916;50.044;15.938;2023-05-10T07:05:52;2.40;;;1.70;;
74465;SDS011;62916;50.044;15.938;2023-05-10T07:08:31;1.80;;;1.50;;
74465;SDS011;62916;50.044;15.938;2023-05-10T07:11:02;1.80;;;1.40;;
74465;SDS011;62916;50.044;15.938;2023-05-10T07:13:35;2.00;;;1.80;;
74465;SDS011;62916;50.044;15.938;2023-05-10T07:16:09;3.20;;;1.60;;
74465;SDS011;62916;50.044;15.938;2023-05-10T07:18:40;2.70;;;1.80;;
74465;SDS011;62916;50.044;15.938;2023-05-10T07:21:11;2.30;;;1.70;;
74465;SDS011;62916;50.044;15.938;2023-05-10T07:23:42;1.70;;;1.40;;
74465;SDS011;62916;50.044;15.938;2023-05-10T07:26:13;2.90;;;1.80;;
74465;SDS011;62916;50.044;15.938;2023-05-10T07:28:43;2.70;;;1.60;;
74465;SDS011;62916;50.044;15.938;2023-05-10T07:31:14;1.90;;;1.60;;
74465;SDS011;62916;50.044;15.938;2023-05-10T07:33:46;1.70;;;1.50;;
74465;SDS011;62916;50.044;15.938;2023-05-10T07:36:16;4.30;;;1.70;;
74465;SDS011;62916;50.044;15.938;2023-05-10T07:38:47;1.80;;;1.60;;
74465;SDS011;62916;50.044;15.938;2023-05-10T07:41:18;2.80;;;1.60;;
74465;SDS011;62916;50.044;15.938;2023-05-10T07:43:50;2.70;;;1.90;;
74465;SDS011;62916;50.044;15.938;2023-05-10T07:46:20;2.60;;;1.90;;
74465;SDS011;62916;50.044;15.938;2023-05-10T07:48:51;2.50;;;1.50;;
74465;SDS011;62916;50.044;15.938;2023-05-10T07:51:25;2.00;;;1.50;;
74465;SDS011;62916;50.044;15.938;2023-05-10T07:53:55;2.10;;;1.60;;
74465;SDS011;62916;50.044;15.938;2023-05-10T07:56:27;2.30;;;1.40;;
74465;SDS011;62916;50.044;15.938;2023-05-10T07:58:59;3.70;;;1.70;;
74465;SDS011;62916;50.044;15.938;2023-05-10T08:01:31;2.70;;;2.00;;
74465;SDS011;62916;50.044;15.938;2023-05-10T08:04:03;3.00;;;2.10;;
74465;SDS011;62916;50.044;15.938;2023-05-10T08:06:34;1.80;;;1.50;;
74465;SDS011;62916;50.044;15.938;2023-05-10T08:09:04;2.60;;;1.50;;
74465;SDS011;62916;50.044;15.938;2023-05-10T08:11:35;3.10;;;1.70;;
74465;SDS011;62916;50.044;15.938;2023-05-10T08:14:06;1.70;;;1.50;;
74465;SDS011;62916;50.044;15.938;2023-05-10T08:16:37;2.50;;;1.60;;
74465;SDS011;62916;50.044;15.938;2023-05-10T08:19:08;2.20;;;1.50;;
74465;SDS011;62916;50.044;15.938;2023-05-10T08:21:39;2.00;;;1.50;;
74465;SDS011;62916;50.044;15.938;2023-05-10T08:24:10;2.50;;;1.70;;
74465;SDS011;62916;50.044;15.938;2023-05-10T08:26:41;2.10;;;1.60;;
74465;SDS011;62916;50.044;15.938;2023-05-10T08:29:12;1.80;;;1.50;;
74465;SDS011;62916;50.044;15.938;2023-05-10T08:31:42;2.80;;;2.20;;
74465;SDS011;62916;50.044;15.938;2023-05-10T08:34:13;2.40;;;2.00;;
74465;SDS011;62916;50.044;15.938;2023-05-10T08:36:44;3.40;;;1.80;;
74465;SDS011;62916;50.044;15.938;2023-05-10T08:39:15;3.90;;;2.80;;
74465;SDS011;62916;50.044;15.938;2023-05-10T08:41:57;3.10;;;1.70;;
74465;SDS011;62916;50.044;15.938;2023-05-10T08:44:33;3.10;;;1.70;;
74465;SDS011;62916;50.044;15.938;2023-05-10T08:47:05;2.60;;;1.40;;
74465;SDS011;62916;50.044;15.938;2023-05-10T08:49:38;2.00;;;1.80;;
74465;SDS011;62916;50.044;15.938;2023-05-10T08:52:10;2.30;;;2.10;;
74465;SDS011;62916;50.044;15.938;2023-05-10T08:54:42;2.50;;;1.50;;
74465;SDS011;62916;50.044;15.938;2023-05-10T08:57:13;3.60;;;1.90;;
74465;SDS011;62916;50.044;15.938;2023-05-10T08:59:44;3.20;;;1.70;;
74465;SDS011;62916;50.044;15.938;2023-05-10T09:02:15;1.90;;;1.70;;
74465;SDS011;62916;50.044;15.938;2023-05-10T09:04:47;2.30;;;1.80;;
74465;SDS011;62916;50.044;15.938;2023-05-10T09:07:18;2.30;;;1.80;;
74465;SDS011;62916;50.044;15.938;2023-05-10T09:09:49;6.10;;;2.20;;
74465;SDS011;62916;50.044;15.938;2023-05-10T09:12:21;2.80;;;2.10;;
74465;SDS011;62916;50.044;15.938;2023-05-10T09:14:52;2.70;;;1.70;;
74465;SDS011;62916;50.044;15.938;2023-05-10T09:17:23;3.40;;;1.80;;
74465;SDS011;62916;50.044;15.938;2023-05-10T09:19:58;3.00;;;1.60;;
74465;SDS011;62916;50.044;15.938;2023-05-10T09:22:30;3.30;;;2.30;;
74465;SDS011;62916;50.044;15.938;2023-05-10T09:25:08;2.70;;;1.70;;
74465;SDS011;62916;50.044;15.938;2023-05-10T09:27:43;2.60;;;2.00;;
74465;SDS011;62916;50.044;15.938;2023-05-10T09:30:23;3.20;;;1.80;;
74465;SDS011;62916;50.044;15.938;2023-05-10T09:32:55;3.10;;;1.90;;
74465;SDS011;62916;50.044;15.938;2023-05-10T09:35:28;2.30;;;1.80;;
74465;SDS011;62916;50.044;15.938;2023-05-10T09:38:01;3.00;;;1.80;;
74465;SDS011;62916;50.044;15.938;2023-05-10T09:40:34;2.90;;;2.10;;
74465;SDS011;62916;50.044;15.938;2023-05-10T09:43:06;2.10;;;1.70;;
74465;SDS011;62916;50.044;15.938;2023-05-10T09:45:38;2.30;;;1.70;;
74465;SDS011;62916;50.044;15.938;2023-05-10T09:48:11;3.10;;;2.10;;
74465;SDS011;62916;50.044;15.938;2023-05-10T09:50:42;2.20;;;2.00;;
74465;SDS011;62916;50.044;15.938;2023-05-10T09:53:14;3.40;;;2.40;;
74465;SDS011;62916;50.044;15.938;2023-05-10T09:55:45;2.00;;;1.60;;
74465;SDS011;62916;50.044;15.938;2023-05-10T09:58:18;2.90;;;2.20;;
74465;SDS011;62916;50.044;15.938;2023-05-10T10:00:49;3.30;;;1.90;;
74465;SDS011;62916;50.044;15.938;2023-05-10T10:03:21;3.00;;;2.00;;
74465;SDS011;62916;50.044;15.938;2023-05-10T10:05:52;2.50;;;2.00;;
74465;SDS011;62916;50.044;15.938;2023-05-10T10:08:23;3.00;;;1.70;;
74465;SDS011;62916;50.044;15.938;2023-05-10T10:10:55;3.40;;;2.10;;
74465;SDS011;62916;50.044;15.938;2023-05-10T10:13:26;3.40;;;1.90;;
74465;SDS011;62916;50.044;15.938;2023-05-10T10:15:57;1.80;;;1.50;;
74465;SDS011;62916;50.044;15.938;2023-05-10T10:18:28;2.60;;;2.40;;
74465;SDS011;62916;50.044;15.938;2023-05-10T10:21:01;3.40;;;2.00;;
74465;SDS011;62916;50.044;15.938;2023-05-10T10:23:33;2.40;;;2.20;;
74465;SDS011;62916;50.044;15.938;2023-05-10T10:26:05;2.60;;;1.80;;
74465;SDS011;62916;50.044;15.938;2023-05-10T10:28:38;2.50;;;1.80;;
74465;SDS011;62916;50.044;15.938;2023-05-10T10:31:17;2.90;;;1.80;;
74465;SDS011;62916;50.044;15.938;2023-05-10T10:33:59;2.00;;;1.80;;
74465;SDS011;62916;50.044;15.938;2023-05-10T10:36:34;1.70;;;1.50;;
74465;SDS011;62916;50.044;15.938;2023-05-10T10:39:12;2.10;;;1.70;;
74465;SDS011;62916;50.044;15.938;2023-05-10T10:41:50;2.00;;;1.60;;
74465;SDS011;62916;50.044;15.938;2023-05-10T10:44:26;1.90;;;1.70;;
74465;SDS011;62916;50.044;15.938;2023-05-10T10:47:09;2.70;;;1.70;;
74465;SDS011;62916;50.044;15.938;2023-05-10T10:50:05;2.30;;;1.50;;
74465;SDS011;62916;50.044;15.938;2023-05-10T10:52:37;1.50;;;1.30;;
74465;SDS011;62916;50.044;15.938;2023-05-10T10:55:09;1.80;;;1.30;;
74465;SDS011;62916;50.044;15.938;2023-05-10T10:57:45;1.90;;;1.80;;
74465;SDS011;62916;50.044;15.938;2023-05-10T11:00:23;1.50;;;1.40;;
74465;SDS011;62916;50.044;15.938;2023-05-10T11:02:59;2.10;;;1.70;;
74465;SDS011;62916;50.044;15.938;2023-05-10T11:05:36;1.70;;;1.60;;
74465;SDS011;62916;50.044;15.938;2023-05-10T11:08:15;2.30;;;1.80;;
74465;SDS011;62916;50.044;15.938;2023-05-10T11:10:51;2.20;;;1.40;;
74465;SDS011;62916;50.044;15.938;2023-05-10T11:13:32;1.70;;;1.60;;
74465;SDS011;62916;50.044;15.938;2023-05-10T11:16:16;1.50;;;1.20;;
74465;SDS011;62916;50.044;15.938;2023-05-10T11:18:56;1.80;;;1.60;;
74465;SDS011;62916;50.044;15.938;2023-05-10T11:21:31;2.30;;;1.40;;
74465;SDS011;62916;50.044;15.938;2023-05-10T11:24:09;1.40;;;1.30;;
74465;SDS011;62916;50.044;15.938;2023-05-10T11:26:43;2.70;;;1.30;;
74465;SDS011;62916;50.044;15.938;2023-05-10T11:29:15;1.70;;;1.60;;
74465;SDS011;62916;50.044;15.938;2023-05-10T11:31:46;2.00;;;1.90;;
74465;SDS011;62916;50.044;15.938;2023-05-10T11:34:24;1.40;;;1.20;;
74465;SDS011;62916;50.044;15.938;2023-05-10T11:36:58;1.30;;;1.20;;
74465;SDS011;62916;50.044;15.938;2023-05-10T11:39:29;1.80;;;1.20;;
74465;SDS011;62916;50.044;15.938;2023-05-10T11:42:01;1.70;;;1.50;;
74465;SDS011;62916;50.044;15.938;2023-05-10T11:44:32;2.00;;;1.90;;
74465;SDS011;62916;50.044;15.938;2023-05-10T11:47:03;2.30;;;2.10;;
74465;SDS011;62916;50.044;15.938;2023-05-10T11:49:34;2.50;;;1.40;;
74465;SDS011;62916;50.044;15.938;2023-05-10T11:52:06;1.70;;;1.60;;
74465;SDS011;62916;50.044;15.938;2023-05-10T11:54:42;1.50;;;1.40;;
74465;SDS011;62916;50.044;15.938;2023-05-10T11:57:19;1.70;;;1.40;;
74465;SDS011;62916;50.044;15.938;2023-05-10T11:59:55;1.50;;;1.40;;
74465;SDS011;62916;50.044;15.938;2023-05-10T12:02:28;1.90;;;1.40;;
74465;SDS011;62916;50.044;15.938;2023-05-10T12:04:59;2.80;;;1.80;;
74465;SDS011;62916;50.044;15.938;2023-05-10T12:07:32;1.40;;;1.30;;
74465;SDS011;62916;50.044;15.938;2023-05-10T12:10:05;1.50;;;1.40;;
74465;SDS011;62916;50.044;15.938;2023-05-10T12:12:40;1.80;;;1.20;;
74465;SDS011;62916;50.044;15.938;2023-05-10T12:15:12;1.50;;;1.40;;
74465;SDS011;62916;50.044;15.938;2023-05-10T12:17:46;1.40;;;1.00;;
74465;SDS011;62916;50.044;15.938;2023-05-10T12:20:18;2.00;;;1.20;;
74465;SDS011;62916;50.044;15.938;2023-05-10T12:22:53;1.80;;;1.10;;
74465;SDS011;62916;50.044;15.938;2023-05-10T12:25:30;1.50;;;1.20;;
74465;SDS011;62916;50.044;15.938;2023-05-10T12:28:04;2.30;;;1.10;;
74465;SDS011;62916;50.044;15.938;2023-05-10T12:30:52;1.50;;;1.40;;
74465;SDS011;62916;50.044;15.938;2023-05-10T12:33:23;1.40;;;1.00;;
74465;SDS011;62916;50.044;15.938;2023-05-10T12:35:54;2.20;;;1.60;;
74465;SDS011;62916;50.044;15.938;2023-05-10T12:38:29;1.60;;;1.50;;
74465;SDS011;62916;50.044;15.938;2023-05-10T12:41:01;1.20;;;1.10;;
74465;SDS011;62916;50.044;15.938;2023-05-10T12:43:34;1.30;;;1.20;;
74465;SDS011;62916;50.044;15.938;2023-05-10T12:46:06;1.30;;;1.20;;
74465;SDS011;62916;50.044;15.938;2023-05-10T12:48:39;1.20;;;1.10;;
74465;SDS011;62916;50.044;15.938;2023-05-10T12:51:10;1.70;;;1.30;;
74465;SDS011;62916;50.044;15.938;2023-05-10T12:53:43;2.00;;;1.20;;
74465;SDS011;62916;50.044;15.938;2023-05-10T12:56:16;1.40;;;1.30;;
74465;SDS011;62916;50.044;15.938;2023-05-10T12:58:48;2.90;;;1.20;;
74465;SDS011;62916;50.044;15.938;2023-05-10T13:01:19;1.70;;;1.60;;
74465;SDS011;62916;50.044;15.938;2023-05-10T13:03:49;1.30;;;1.20;;
74465;SDS011;62916;50.044;15.938;2023-05-10T13:06:20;1.60;;;1.50;;
74465;SDS011;62916;50.044;15.938;2023-05-10T13:08:51;1.80;;;1.20;;
74465;SDS011;62916;50.044;15.938;2023-05-10T13:11:22;1.20;;;1.10;;
74465;SDS011;62916;50.044;15.938;2023-05-10T13:13:53;1.50;;;1.40;;
74465;SDS011;62916;50.044;15.938;2023-05-10T13:16:24;1.50;;;1.20;;
74465;SDS011;62916;50.044;15.938;2023-05-10T13:18:55;2.20;;;1.30;;
74465;SDS011;62916;50.044;15.938;2023-05-10T13:21:26;2.20;;;1.50;;
74465;SDS011;62916;50.044;15.938;2023-05-10T13:23:57;1.30;;;1.20;;
74465;SDS011;62916;50.044;15.938;2023-05-10T13:26:29;1.50;;;1.10;;
74465;SDS011;62916;50.044;15.938;2023-05-10T13:29:00;1.60;;;1.30;;
74465;SDS011;62916;50.044;15.938;2023-05-10T13:31:31;1.10;;;1.00;;
74465;SDS011;62916;50.044;15.938;2023-05-10T13:34:02;3.00;;;1.20;;
74465;SDS011;62916;50.044;15.938;2023-05-10T13:36:34;1.50;;;1.00;;
74465;SDS011;62916;50.044;15.938;2023-05-10T13:39:04;1.30;;;1.20;;
74465;SDS011;62916;50.044;15.938;2023-05-10T13:41:36;3.00;;;1.60;;
74465;SDS011;62916;50.044;15.938;2023-05-10T13:44:07;2.30;;;1.50;;
74465;SDS011;62916;50.044;15.938;2023-05-10T13:46:39;1.60;;;1.40;;
74465;SDS011;62916;50.044;15.938;2023-05-10T13:49:11;1.00;;;0.90;;
74465;SDS011;62916;50.044;15.938;2023-05-10T13:51:42;1.30;;;1.20;;
74465;SDS011;62916;50.044;15.938;2023-05-10T13:54:13;1.20;;;1.10;;
74465;SDS011;62916;50.044;15.938;2023-05-10T13:56:45;1.40;;;1.30;;
74465;SDS011;62916;50.044;15.938;2023-05-10T13:59:16;2.20;;;1.20;;
74465;SDS011;62916;50.044;15.938;2023-05-10T14:01:47;1.20;;;1.10;;
74465;SDS011;62916;50.044;15.938;2023-05-10T14:04:18;6.10;;;1.60;;
74465;SDS011;62916;50.044;15.938;2023-05-10T14:06:48;14.60;;;2.90;;
74465;SDS011;62916;50.044;15.938;2023-05-10T14:09:20;10.20;;;2.10;;
74465;SDS011;62916;50.044;15.938;2023-05-10T14:11:51;21.90;;;3.20;;
74465;SDS011;62916;50.044;15.938;2023-05-10T14:14:23;6.40;;;1.90;;
74465;SDS011;62916;50.044;15.938;2023-05-10T14:16:54;15.10;;;2.50;;
74465;SDS011;62916;50.044;15.938;2023-05-10T14:19:25;13.10;;;2.40;;
74465;SDS011;62916;50.044;15.938;2023-05-10T14:21:58;8.20;;;2.20;;
74465;SDS011;62916;50.044;15.938;2023-05-10T14:24:29;11.40;;;2.30;;
74465;SDS011;62916;50.044;15.938;2023-05-10T14:27:00;9.30;;;1.80;;
74465;SDS011;62916;50.044;15.938;2023-05-10T14:29:31;7.60;;;1.60;;
74465;SDS011;62916;50.044;15.938;2023-05-10T14:32:02;6.10;;;1.50;;
74465;SDS011;62916;50.044;15.938;2023-05-10T14:34:33;7.70;;;1.80;;
74465;SDS011;62916;50.044;15.938;2023-05-10T14:37:04;9.40;;;2.10;;
74465;SDS011;62916;50.044;15.938;2023-05-10T14:39:35;6.90;;;1.90;;
74465;SDS011;62916;50.044;15.938;2023-05-10T14:42:06;7.60;;;1.80;;
74465;SDS011;62916;50.044;15.938;2023-05-10T14:44:37;3.10;;;1.50;;
74465;SDS011;62916;50.044;15.938;2023-05-10T14:47:08;8.40;;;1.70;;
74465;SDS011;62916;50.044;15.938;2023-05-10T14:49:39;6.20;;;1.50;;
74465;SDS011;62916;50.044;15.938;2023-05-10T14:52:10;5.20;;;1.80;;
74465;SDS011;62916;50.044;15.938;2023-05-10T14:54:42;4.70;;;2.10;;
74465;SDS011;62916;50.044;15.938;2023-05-10T14:57:13;4.60;;;1.40;;
74465;SDS011;62916;50.044;15.938;2023-05-10T14:59:43;4.60;;;1.40;;
74465;SDS011;62916;50.044;15.938;2023-05-10T15:02:15;2.70;;;1.60;;
74465;SDS011;62916;50.044;15.938;2023-05-10T15:04:47;4.00;;;1.50;;
74465;SDS011;62916;50.044;15.938;2023-05-10T15:07:19;3.10;;;1.20;;